createdAt,value
2022-08-20T00:03:55.064Z,100.00
2022-08-20T00:08:59.037Z,100.00
2022-08-20T00:14:06.733Z,100.00
2022-08-20T00:19:10.941Z,100.00
2022-08-20T00:24:14.408Z,100.00
2022-08-20T00:29:20.106Z,100.00
2022-08-20T00:34:24.024Z,100.00
2022-08-20T00:39:27.563Z,100.00
2022-08-20T00:44:32.487Z,100.00
2022-08-20T00:49:36.013Z,100.00
2022-08-20T00:54:42.599Z,100.00
2022-08-20T00:59:48.899Z,100.00
2022-08-20T01:04:52.537Z,100.00
2022-08-20T01:09:58.986Z,100.00
2022-08-20T01:15:10.520Z,100.00
2022-08-20T01:20:17.721Z,100.00
2022-08-20T01:25:28.256Z,100.00
2022-08-20T01:30:34.973Z,100.00
2022-08-20T01:35:40.037Z,100.00
2022-08-20T01:40:58.234Z,100.00
2022-08-20T01:46:04.072Z,100.00
2022-08-20T01:51:13.799Z,100.00
2022-08-20T01:56:19.951Z,100.00
2022-08-20T02:01:28.270Z,100.00
2022-08-20T02:06:34.745Z,100.00
2022-08-20T02:11:38.935Z,100.00
2022-08-20T02:16:55.256Z,100.00
2022-08-20T02:22:02.876Z,100.00
2022-08-20T02:27:06.561Z,100.00
2022-08-20T02:32:32.222Z,100.00
2022-08-20T02:37:35.804Z,100.00
2022-08-20T02:42:41.938Z,100.00
2022-08-20T02:47:47.472Z,100.00
2022-08-20T02:52:52.312Z,100.00
2022-08-20T02:57:58.725Z,100.00
2022-08-20T03:03:04.427Z,100.00
2022-08-20T03:08:09.395Z,100.00
2022-08-20T03:13:14.275Z,100.00
2022-08-20T03:18:20.724Z,100.00
2022-08-20T03:23:24.246Z,100.00
2022-08-20T03:28:28.417Z,100.00
2022-08-20T03:33:33.689Z,100.00
2022-08-20T03:38:37.841Z,100.00
2022-08-20T03:43:41.827Z,100.00
2022-08-20T03:48:46.899Z,100.00
2022-08-20T03:53:52.586Z,100.00
2022-08-20T03:58:57.033Z,100.00
2022-08-20T04:04:02.391Z,100.00
2022-08-20T04:09:06.240Z,100.00
2022-08-20T04:14:11.233Z,100.00
2022-08-20T04:19:16.215Z,100.00
2022-08-20T04:24:22.694Z,100.00
2022-08-20T04:29:37.635Z,100.00
2022-08-20T04:34:43.271Z,100.00
2022-08-20T04:40:05.630Z,100.00
2022-08-20T04:45:09.976Z,100.00
2022-08-20T04:50:15.854Z,100.00
2022-08-20T04:55:19.879Z,100.00
2022-08-20T05:00:23.383Z,100.00
2022-08-20T05:05:29.211Z,100.00
2022-08-20T05:10:33.128Z,100.00
2022-08-20T05:15:38.621Z,100.00
2022-08-20T05:20:43.913Z,100.00
2022-08-20T05:25:51.444Z,100.00
2022-08-20T05:30:55.020Z,100.00
2022-08-20T05:36:00.312Z,100.00
2022-08-20T05:41:04.258Z,100.00
2022-08-20T05:46:09.090Z,100.00
2022-08-20T05:51:15.305Z,100.00
2022-08-20T05:56:18.830Z,100.00
2022-08-20T06:01:25.214Z,100.00
2022-08-20T06:06:45.096Z,100.00
2022-08-20T06:11:50.274Z,100.00
2022-08-20T06:16:57.811Z,100.00
2022-08-20T06:22:18.589Z,100.00
2022-08-20T06:27:27.208Z,100.00
2022-08-20T06:32:32.457Z,100.00
2022-08-20T06:37:39.847Z,100.00
2022-08-20T06:42:48.628Z,100.00
2022-08-20T06:47:53.828Z,100.00
2022-08-20T06:52:58.743Z,100.00
2022-08-20T06:58:05.492Z,100.00
2022-08-20T07:03:09.747Z,100.00
2022-08-20T07:08:18.663Z,100.00
2022-08-20T07:13:22.237Z,100.00
2022-08-20T07:18:29.089Z,100.00
2022-08-20T07:23:34.131Z,100.00
2022-08-20T07:28:37.762Z,100.00
2022-08-20T07:33:41.463Z,100.00
2022-08-20T07:38:47.990Z,100.00
2022-08-20T07:43:51.467Z,100.00
2022-08-20T07:48:54.949Z,100.00
2022-08-20T07:54:00.158Z,100.00
2022-08-20T07:59:04.140Z,100.00
2022-08-20T08:04:07.706Z,100.00
2022-08-20T08:09:15.299Z,91.48
2022-08-20T08:14:23.434Z,80.12
2022-08-20T08:19:29.537Z,75.98
2022-08-20T08:24:34.547Z,69.02
2022-08-20T08:29:38.634Z,64.12
2022-08-20T08:34:42.148Z,64.67
2022-08-20T08:39:47.049Z,58.99
2022-08-20T08:44:50.840Z,57.94
2022-08-20T08:49:56.133Z,60.26
2022-08-20T08:55:04.413Z,61.74
2022-08-20T09:00:14.328Z,59.73
2022-08-20T09:05:21.560Z,64.66
2022-08-20T09:10:26.406Z,72.58
2022-08-20T09:15:29.885Z,75.05
2022-08-20T09:20:33.427Z,76.70
2022-08-20T09:25:38.329Z,71.81
2022-08-20T09:30:42.005Z,73.29
2022-08-20T09:35:47.632Z,74.87
2022-08-20T09:40:52.481Z,78.04
2022-08-20T09:45:55.967Z,78.19
2022-08-20T09:50:59.511Z,77.25
2022-08-20T09:56:05.082Z,74.86
2022-08-20T10:01:13.857Z,73.87
2022-08-20T10:06:20.888Z,70.75
2022-08-20T10:11:25.756Z,66.69
2022-08-20T10:16:32.735Z,70.21
2022-08-20T10:21:41.341Z,70.14
2022-08-20T10:26:46.809Z,71.50
2022-08-20T10:31:50.535Z,69.43
2022-08-20T10:36:54.141Z,65.53
2022-08-20T10:41:58.953Z,61.60
2022-08-20T10:47:15.091Z,57.81
2022-08-20T10:52:18.916Z,52.93
2022-08-20T10:57:27.082Z,52.00
2022-08-20T11:02:30.734Z,54.51
2022-08-20T11:07:55.512Z,48.30
2022-08-20T11:13:02.205Z,45.52
2022-08-20T11:18:06.108Z,46.18
2022-08-20T11:23:09.565Z,45.54
2022-08-20T11:28:15.414Z,45.64
2022-08-20T11:33:19.151Z,44.24
2022-08-20T11:38:26.995Z,42.33
2022-08-20T11:43:31.936Z,43.54
2022-08-20T11:48:35.411Z,42.53
2022-08-20T11:53:39.061Z,41.89
2022-08-20T11:58:46.120Z,41.59
2022-08-20T12:03:49.619Z,41.22
2022-08-20T12:08:53.087Z,40.66
2022-08-20T12:13:57.917Z,40.02
2022-08-20T12:19:01.447Z,41.17
2022-08-20T12:24:05.572Z,40.63
2022-08-20T12:29:10.407Z,41.56
2022-08-20T12:34:13.875Z,40.04
2022-08-20T12:39:19.955Z,39.80
2022-08-20T12:44:24.902Z,41.07
2022-08-20T12:49:28.847Z,38.09
2022-08-20T12:54:32.601Z,38.89
2022-08-20T12:59:37.399Z,39.06
2022-08-20T13:04:40.886Z,39.22
2022-08-20T13:09:44.928Z,38.39
2022-08-20T13:14:49.811Z,38.29
2022-08-20T13:19:53.272Z,37.92
2022-08-20T13:24:56.776Z,38.78
2022-08-20T13:30:01.649Z,37.12
2022-08-20T13:35:07.376Z,38.04
2022-08-20T13:40:12.121Z,37.80
2022-08-20T13:45:17.019Z,36.65
2022-08-20T13:50:22.072Z,38.09
2022-08-20T13:55:27.320Z,38.54
2022-08-20T14:00:34.050Z,38.33
2022-08-20T14:05:38.016Z,38.56
2022-08-20T14:10:42.707Z,38.64
2022-08-20T14:15:50.179Z,39.05
2022-08-20T14:20:53.675Z,38.70
2022-08-20T14:25:57.212Z,38.90
2022-08-20T14:31:02.092Z,38.77
2022-08-20T14:36:06.257Z,40.06
2022-08-20T14:41:09.719Z,40.65
2022-08-20T14:46:14.621Z,40.84
2022-08-20T14:51:18.271Z,40.61
2022-08-20T14:56:21.829Z,41.50
2022-08-20T15:01:26.775Z,41.82
2022-08-20T15:06:30.319Z,42.04
2022-08-20T15:11:37.880Z,41.51
2022-08-20T15:16:42.926Z,41.72
2022-08-20T15:21:46.416Z,42.18
2022-08-20T15:26:50.167Z,43.71
2022-08-20T15:31:55.011Z,44.70
2022-08-20T15:36:58.531Z,44.67
2022-08-20T15:42:01.992Z,45.17
2022-08-20T15:47:22.207Z,45.79
2022-08-20T15:52:28.445Z,46.64
2022-08-20T15:57:45.311Z,48.75
2022-08-20T16:03:12.966Z,50.17
2022-08-20T16:08:51.953Z,53.08
2022-08-20T16:13:58.475Z,53.82
2022-08-20T16:19:04.081Z,54.45
2022-08-20T16:24:10.733Z,56.06
2022-08-20T16:29:22.947Z,57.72
2022-08-20T16:34:33.643Z,57.64
2022-08-20T16:39:43.431Z,58.33
2022-08-20T16:44:51.416Z,59.29
2022-08-20T16:50:01.788Z,59.52
2022-08-20T16:55:05.803Z,62.15
2022-08-20T17:00:14.396Z,61.62
2022-08-20T17:05:19.794Z,61.89
2022-08-20T17:10:27.360Z,63.07
2022-08-20T17:15:33.499Z,63.28
2022-08-20T17:20:45.068Z,64.29
2022-08-20T17:25:58.800Z,64.47
2022-08-20T17:31:02.263Z,65.34
2022-08-20T17:36:11.190Z,66.72
2022-08-20T17:41:19.855Z,66.75
2022-08-20T17:46:24.358Z,66.27
2022-08-20T17:51:34.589Z,67.34
2022-08-20T17:56:41.894Z,67.67
2022-08-20T18:01:45.568Z,68.05
2022-08-20T18:07:02.254Z,69.22
2022-08-20T18:12:24.315Z,69.45
2022-08-20T18:17:58.895Z,70.41
2022-08-20T18:23:09.269Z,70.64
2022-08-20T18:28:19.642Z,71.75
2022-08-20T18:33:29.543Z,71.02
2022-08-20T18:38:43.531Z,72.44
2022-08-20T18:43:47.344Z,72.29
2022-08-20T18:48:54.153Z,72.61
2022-08-20T18:54:00.297Z,72.56
2022-08-20T18:59:10.518Z,73.13
2022-08-20T19:04:21.198Z,73.86
2022-08-20T19:09:43.336Z,74.17
2022-08-20T19:15:07.544Z,74.29
2022-08-20T19:20:15.909Z,75.22
2022-08-20T19:25:27.978Z,76.53
2022-08-20T19:30:35.763Z,78.72
2022-08-20T19:35:39.808Z,79.90
2022-08-20T19:40:46.213Z,81.42
2022-08-20T19:45:54.295Z,82.88
2022-08-20T19:51:07.390Z,84.80
2022-08-20T19:56:16.141Z,85.49
2022-08-20T20:01:22.219Z,86.28
2022-08-20T20:06:29.131Z,88.71
2022-08-20T20:11:36.812Z,90.18
2022-08-20T20:16:42.112Z,91.84
2022-08-20T20:21:48.108Z,93.68
2022-08-20T20:26:53.216Z,94.62
2022-08-20T20:32:01.456Z,96.53
2022-08-20T20:37:10.047Z,98.13
2022-08-20T20:42:27.374Z,97.58
2022-08-20T20:47:35.916Z,97.64
2022-08-20T20:52:54.502Z,98.25
2022-08-20T20:57:59.873Z,100.00
2022-08-20T21:03:06.153Z,100.00
2022-08-20T21:08:11.409Z,100.00
2022-08-20T21:13:16.450Z,100.00
2022-08-20T21:18:24.112Z,100.00
2022-08-20T21:23:40.093Z,100.00
2022-08-20T21:28:46.884Z,100.00
2022-08-20T21:33:50.404Z,100.00
2022-08-20T21:38:54.063Z,100.00
2022-08-20T21:43:59.256Z,100.00
2022-08-20T21:49:02.809Z,100.00
2022-08-20T21:54:06.519Z,100.00
2022-08-20T21:59:11.638Z,100.00
2022-08-20T22:04:15.304Z,100.00
2022-08-20T22:09:18.964Z,100.00
2022-08-20T22:14:24.768Z,100.00
2022-08-20T22:19:28.208Z,100.00
2022-08-20T22:24:31.689Z,100.00
2022-08-20T22:29:36.668Z,100.00
2022-08-20T22:34:40.169Z,100.00
2022-08-20T22:39:43.892Z,100.00
2022-08-20T22:44:48.812Z,100.00
2022-08-20T22:49:52.364Z,100.00
2022-08-20T22:54:56.581Z,100.00
2022-08-20T23:00:02.206Z,100.00
2022-08-20T23:05:07.250Z,100.00
2022-08-20T23:10:10.808Z,100.00
2022-08-20T23:15:15.740Z,100.00
2022-08-20T23:20:19.610Z,100.00
2022-08-20T23:25:23.377Z,100.00
2022-08-20T23:30:29.485Z,100.00
2022-08-20T23:35:33.228Z,100.00
2022-08-20T23:40:38.233Z,100.00
2022-08-20T23:45:43.642Z,100.00
2022-08-20T23:50:47.476Z,100.00
2022-08-20T23:55:50.943Z,100.00
